Hopper, Illinois
Current Conditions -  °F | °C
As of 1:53 PM on Sunday 21 Dec 2014 (Local Time) from KBRL Reporting Station
Overcast Overcast  
Wind Chill: 36°   Ceiling: 3300
Heat Index: 42°   Visibility: 10mi
Dew Point: 35°   Wind: 10mph
Humidity: 76%   Direction: 170°S
Pressure: 29.96"   Gusts: NA
Location:  40.7638°N, 90.9614°W
Report Text: KBRL 211953Z AUTO 17009KT 10SM FEW018 OVC033 06/02 A2996 RMK AO2 SLP151 T00560017
Loading
Personal Weather Stations






























Interactive Weather Map New forecast layout! Learn more

10-Day Weather Forecast

Advertisements
Track Severe Weather on mobile